sensor_id;sensor_type;location;lat;lon;timestamp;temperature;humidity
71367;DHT22;60030;52.274;8.040;2023-05-09T00:01:50;17.10;99.90
71367;DHT22;60030;52.274;8.040;2023-05-09T00:04:18;17.10;99.90
71367;DHT22;60030;52.274;8.040;2023-05-09T00:06:47;17.10;99.90
71367;DHT22;60030;52.274;8.040;2023-05-09T00:09:14;17.10;99.90
71367;DHT22;60030;52.274;8.040;2023-05-09T00:11:42;17.00;99.90
71367;DHT22;60030;52.274;8.040;2023-05-09T00:14:09;17.00;99.90
71367;DHT22;60030;52.274;8.040;2023-05-09T00:16:37;17.00;99.90
71367;DHT22;60030;52.274;8.040;2023-05-09T00:19:05;17.00;99.90
71367;DHT22;60030;52.274;8.040;2023-05-09T00:21:32;17.00;99.90
71367;DHT22;60030;52.274;8.040;2023-05-09T00:24:01;17.00;99.90
71367;DHT22;60030;52.274;8.040;2023-05-09T00:26:28;17.00;99.90
71367;DHT22;60030;52.274;8.040;2023-05-09T00:28:56;17.00;99.90
71367;DHT22;60030;52.274;8.040;2023-05-09T00:31:24;17.00;99.90
71367;DHT22;60030;52.274;8.040;2023-05-09T00:33:53;17.00;99.90
71367;DHT22;60030;52.274;8.040;2023-05-09T00:36:20;17.00;99.90
71367;DHT22;60030;52.274;8.040;2023-05-09T00:38:48;17.00;99.90
71367;DHT22;60030;52.274;8.040;2023-05-09T00:41:17;17.00;99.90
71367;DHT22;60030;52.274;8.040;2023-05-09T00:43:44;16.90;99.90
71367;DHT22;60030;52.274;8.040;2023-05-09T00:46:11;16.90;99.90
71367;DHT22;60030;52.274;8.040;2023-05-09T00:48:39;16.80;99.90
71367;DHT22;60030;52.274;8.040;2023-05-09T00:51:07;16.80;99.90
71367;DHT22;60030;52.274;8.040;2023-05-09T00:53:35;16.80;99.90
71367;DHT22;60030;52.274;8.040;2023-05-09T00:56:03;16.80;99.90
71367;DHT22;60030;52.274;8.040;2023-05-09T00:58:32;16.80;99.90
71367;DHT22;60030;52.274;8.040;2023-05-09T01:01:00;16.70;99.90
71367;DHT22;60030;52.274;8.040;2023-05-09T01:03:28;16.70;99.90
71367;DHT22;60030;52.274;8.040;2023-05-09T01:06:05;16.60;99.90
71367;DHT22;60030;52.274;8.040;2023-05-09T01:08:43;16.60;99.90
71367;DHT22;60030;52.274;8.040;2023-05-09T01:11:14;16.60;99.90
71367;DHT22;60030;52.274;8.040;2023-05-09T01:13:54;16.60;99.90
71367;DHT22;60030;52.274;8.040;2023-05-09T01:16:29;16.60;99.90
71367;DHT22;60030;52.274;8.040;2023-05-09T01:19:05;16.60;99.90
71367;DHT22;60030;52.274;8.040;2023-05-09T01:21:34;16.60;99.90
71367;DHT22;60030;52.274;8.040;2023-05-09T01:24:31;16.60;99.90
71367;DHT22;60030;52.274;8.040;2023-05-09T01:27:20;16.50;99.90
71367;DHT22;60030;52.274;8.040;2023-05-09T01:29:51;16.50;99.90
71367;DHT22;60030;52.274;8.040;2023-05-09T01:32:24;16.40;99.90
71367;DHT22;60030;52.274;8.040;2023-05-09T01:34:54;16.30;99.90
71367;DHT22;60030;52.274;8.040;2023-05-09T01:37:26;16.30;99.90
71367;DHT22;60030;52.274;8.040;2023-05-09T01:39:59;16.20;99.90
71367;DHT22;60030;52.274;8.040;2023-05-09T01:42:32;16.20;99.90
71367;DHT22;60030;52.274;8.040;2023-05-09T01:45:03;16.20;99.90
71367;DHT22;60030;52.274;8.040;2023-05-09T01:47:32;16.10;99.90
71367;DHT22;60030;52.274;8.040;2023-05-09T01:50:01;16.20;99.90
71367;DHT22;60030;52.274;8.040;2023-05-09T01:52:30;16.20;99.90
71367;DHT22;60030;52.274;8.040;2023-05-09T01:54:59;16.20;99.90
71367;DHT22;60030;52.274;8.040;2023-05-09T01:57:27;16.20;99.90
71367;DHT22;60030;52.274;8.040;2023-05-09T01:59:56;16.10;99.90
71367;DHT22;60030;52.274;8.040;2023-05-09T02:02:26;16.10;99.90
71367;DHT22;60030;52.274;8.040;2023-05-09T02:04:55;16.00;99.90
71367;DHT22;60030;52.274;8.040;2023-05-09T02:07:23;16.10;99.90
71367;DHT22;60030;52.274;8.040;2023-05-09T02:09:54;16.10;99.90
71367;DHT22;60030;52.274;8.040;2023-05-09T02:12:24;16.00;99.90
71367;DHT22;60030;52.274;8.040;2023-05-09T02:14:52;15.90;99.90
71367;DHT22;60030;52.274;8.040;2023-05-09T02:17:19;16.00;99.90
71367;DHT22;60030;52.274;8.040;2023-05-09T02:19:48;15.90;99.90
71367;DHT22;60030;52.274;8.040;2023-05-09T02:22:15;15.90;99.90
71367;DHT22;60030;52.274;8.040;2023-05-09T02:24:43;15.90;99.90
71367;DHT22;60030;52.274;8.040;2023-05-09T02:27:11;15.90;99.90
71367;DHT22;60030;52.274;8.040;2023-05-09T02:29:42;16.00;99.90
71367;DHT22;60030;52.274;8.040;2023-05-09T02:32:13;16.00;99.90
71367;DHT22;60030;52.274;8.040;2023-05-09T02:34:41;16.00;99.90
71367;DHT22;60030;52.274;8.040;2023-05-09T02:37:12;16.00;99.90
71367;DHT22;60030;52.274;8.040;2023-05-09T02:39:39;15.90;99.90
71367;DHT22;60030;52.274;8.040;2023-05-09T02:42:09;15.90;99.90
71367;DHT22;60030;52.274;8.040;2023-05-09T02:44:37;15.80;99.90
71367;DHT22;60030;52.274;8.040;2023-05-09T02:47:05;15.80;99.90
71367;DHT22;60030;52.274;8.040;2023-05-09T02:49:33;15.80;99.90
71367;DHT22;60030;52.274;8.040;2023-05-09T02:52:04;15.90;99.90
71367;DHT22;60030;52.274;8.040;2023-05-09T02:54:32;15.90;99.90
71367;DHT22;60030;52.274;8.040;2023-05-09T02:57:00;15.90;99.90
71367;DHT22;60030;52.274;8.040;2023-05-09T02:59:27;15.70;99.90
71367;DHT22;60030;52.274;8.040;2023-05-09T03:01:59;15.70;99.90
71367;DHT22;60030;52.274;8.040;2023-05-09T03:04:26;15.80;99.90
71367;DHT22;60030;52.274;8.040;2023-05-09T03:06:54;15.70;99.90
71367;DHT22;60030;52.274;8.040;2023-05-09T03:09:21;15.70;99.90
71367;DHT22;60030;52.274;8.040;2023-05-09T03:11:50;15.60;99.90
71367;DHT22;60030;52.274;8.040;2023-05-09T03:14:17;15.60;99.90
71367;DHT22;60030;52.274;8.040;2023-05-09T03:16:45;15.50;99.90
71367;DHT22;60030;52.274;8.040;2023-05-09T03:19:21;15.60;99.90
71367;DHT22;60030;52.274;8.040;2023-05-09T03:21:48;15.40;99.90
71367;DHT22;60030;52.274;8.040;2023-05-09T03:24:15;15.40;99.90
71367;DHT22;60030;52.274;8.040;2023-05-09T03:26:43;15.40;99.90
71367;DHT22;60030;52.274;8.040;2023-05-09T03:29:11;15.40;99.90
71367;DHT22;60030;52.274;8.040;2023-05-09T03:31:39;15.40;99.90
71367;DHT22;60030;52.274;8.040;2023-05-09T03:34:06;15.30;99.90
71367;DHT22;60030;52.274;8.040;2023-05-09T03:36:38;15.30;99.90
71367;DHT22;60030;52.274;8.040;2023-05-09T03:39:05;15.30;99.90
71367;DHT22;60030;52.274;8.040;2023-05-09T03:41:36;15.30;99.90
71367;DHT22;60030;52.274;8.040;2023-05-09T03:44:06;15.30;99.90
71367;DHT22;60030;52.274;8.040;2023-05-09T03:46:35;15.30;99.90
71367;DHT22;60030;52.274;8.040;2023-05-09T03:49:03;15.30;99.90
71367;DHT22;60030;52.274;8.040;2023-05-09T03:51:31;15.10;99.90
71367;DHT22;60030;52.274;8.040;2023-05-09T03:54:01;15.10;99.90
71367;DHT22;60030;52.274;8.040;2023-05-09T03:56:29;15.20;99.90
71367;DHT22;60030;52.274;8.040;2023-05-09T03:58:56;15.30;99.90
71367;DHT22;60030;52.274;8.040;2023-05-09T04:01:25;15.30;99.90
71367;DHT22;60030;52.274;8.040;2023-05-09T04:03:55;15.40;99.90
71367;DHT22;60030;52.274;8.040;2023-05-09T04:06:24;15.40;99.90
71367;DHT22;60030;52.274;8.040;2023-05-09T04:08:51;15.40;99.90
71367;DHT22;60030;52.274;8.040;2023-05-09T04:11:19;15.50;99.90
71367;DHT22;60030;52.274;8.040;2023-05-09T04:13:48;15.50;99.90
71367;DHT22;60030;52.274;8.040;2023-05-09T04:16:24;15.60;99.90
71367;DHT22;60030;52.274;8.040;2023-05-09T04:18:53;15.60;99.90
71367;DHT22;60030;52.274;8.040;2023-05-09T04:21:21;15.60;99.90
71367;DHT22;60030;52.274;8.040;2023-05-09T04:23:53;15.60;99.90
71367;DHT22;60030;52.274;8.040;2023-05-09T04:26:28;15.60;99.90
71367;DHT22;60030;52.274;8.040;2023-05-09T04:28:57;15.50;99.90
71367;DHT22;60030;52.274;8.040;2023-05-09T04:31:24;15.40;99.90
71367;DHT22;60030;52.274;8.040;2023-05-09T04:33:52;15.50;99.90
71367;DHT22;60030;52.274;8.040;2023-05-09T04:36:22;15.70;99.90
71367;DHT22;60030;52.274;8.040;2023-05-09T04:38:49;15.70;99.90
71367;DHT22;60030;52.274;8.040;2023-05-09T04:41:22;15.80;99.90
71367;DHT22;60030;52.274;8.040;2023-05-09T04:43:50;15.80;99.90
71367;DHT22;60030;52.274;8.040;2023-05-09T04:46:19;15.80;99.90
71367;DHT22;60030;52.274;8.040;2023-05-09T04:48:46;15.80;99.90
71367;DHT22;60030;52.274;8.040;2023-05-09T04:51:13;15.90;99.90
71367;DHT22;60030;52.274;8.040;2023-05-09T04:53:42;15.80;99.90
71367;DHT22;60030;52.274;8.040;2023-05-09T04:56:10;15.70;99.90
71367;DHT22;60030;52.274;8.040;2023-05-09T04:58:38;15.70;99.90
71367;DHT22;60030;52.274;8.040;2023-05-09T05:01:09;15.60;99.90
71367;DHT22;60030;52.274;8.040;2023-05-09T05:03:37;15.60;99.90
71367;DHT22;60030;52.274;8.040;2023-05-09T05:06:05;15.70;99.90
71367;DHT22;60030;52.274;8.040;2023-05-09T05:08:35;15.90;99.90
71367;DHT22;60030;52.274;8.040;2023-05-09T05:11:04;15.90;99.90
71367;DHT22;60030;52.274;8.040;2023-05-09T05:13:31;16.00;99.90
71367;DHT22;60030;52.274;8.040;2023-05-09T05:16:00;16.00;99.90
71367;DHT22;60030;52.274;8.040;2023-05-09T05:18:28;15.90;99.90
71367;DHT22;60030;52.274;8.040;2023-05-09T05:20:55;16.00;99.90
71367;DHT22;60030;52.274;8.040;2023-05-09T05:23:24;16.10;99.90
71367;DHT22;60030;52.274;8.040;2023-05-09T05:25:53;16.10;99.90
71367;DHT22;60030;52.274;8.040;2023-05-09T05:28:23;16.20;99.90
71367;DHT22;60030;52.274;8.040;2023-05-09T05:30:50;16.30;99.90
71367;DHT22;60030;52.274;8.040;2023-05-09T05:33:17;16.40;99.90
71367;DHT22;60030;52.274;8.040;2023-05-09T05:35:45;16.30;99.90
71367;DHT22;60030;52.274;8.040;2023-05-09T05:38:12;16.40;99.90
71367;DHT22;60030;52.274;8.040;2023-05-09T05:40:41;16.40;99.90
71367;DHT22;60030;52.274;8.040;2023-05-09T05:43:09;16.60;99.90
71367;DHT22;60030;52.274;8.040;2023-05-09T05:45:39;16.70;99.90
71367;DHT22;60030;52.274;8.040;2023-05-09T05:48:10;16.80;99.90
71367;DHT22;60030;52.274;8.040;2023-05-09T05:50:37;16.80;99.90
71367;DHT22;60030;52.274;8.040;2023-05-09T05:53:05;16.90;99.90
71367;DHT22;60030;52.274;8.040;2023-05-09T05:55:32;17.00;99.90
71367;DHT22;60030;52.274;8.040;2023-05-09T05:58:00;17.00;99.90
71367;DHT22;60030;52.274;8.040;2023-05-09T06:00:27;17.10;99.90
71367;DHT22;60030;52.274;8.040;2023-05-09T06:03:03;17.20;99.90
71367;DHT22;60030;52.274;8.040;2023-05-09T06:05:50;17.20;99.90
71367;DHT22;60030;52.274;8.040;2023-05-09T06:08:17;17.30;99.90
71367;DHT22;60030;52.274;8.040;2023-05-09T06:10:45;17.40;99.90
71367;DHT22;60030;52.274;8.040;2023-05-09T06:13:12;17.50;99.90
71367;DHT22;60030;52.274;8.040;2023-05-09T06:15:43;17.60;99.90
71367;DHT22;60030;52.274;8.040;2023-05-09T06:18:12;17.70;99.90
71367;DHT22;60030;52.274;8.040;2023-05-09T06:20:40;17.80;99.90
71367;DHT22;60030;52.274;8.040;2023-05-09T06:23:07;17.90;99.90
71367;DHT22;60030;52.274;8.040;2023-05-09T06:25:35;17.90;99.90
71367;DHT22;60030;52.274;8.040;2023-05-09T06:28:03;17.90;99.90
71367;DHT22;60030;52.274;8.040;2023-05-09T06:30:30;17.90;99.90
71367;DHT22;60030;52.274;8.040;2023-05-09T06:32:57;18.00;99.90
71367;DHT22;60030;52.274;8.040;2023-05-09T06:35:26;18.20;99.90
71367;DHT22;60030;52.274;8.040;2023-05-09T06:37:53;18.40;99.90
71367;DHT22;60030;52.274;8.040;2023-05-09T06:40:21;18.50;99.90
71367;DHT22;60030;52.274;8.040;2023-05-09T06:42:48;18.50;99.90
71367;DHT22;60030;52.274;8.040;2023-05-09T06:45:15;18.70;99.90
71367;DHT22;60030;52.274;8.040;2023-05-09T06:47:44;18.90;99.90
71367;DHT22;60030;52.274;8.040;2023-05-09T06:50:11;19.10;99.90
71367;DHT22;60030;52.274;8.040;2023-05-09T06:52:40;19.10;99.90
71367;DHT22;60030;52.274;8.040;2023-05-09T06:55:08;19.00;99.90
71367;DHT22;60030;52.274;8.040;2023-05-09T06:57:36;19.10;99.90
71367;DHT22;60030;52.274;8.040;2023-05-09T07:00:05;19.10;99.90
71367;DHT22;60030;52.274;8.040;2023-05-09T07:02:33;19.20;99.90
71367;DHT22;60030;52.274;8.040;2023-05-09T07:05:00;19.20;99.90
71367;DHT22;60030;52.274;8.040;2023-05-09T07:07:28;19.30;99.90
71367;DHT22;60030;52.274;8.040;2023-05-09T07:09:56;19.40;99.90
71367;DHT22;60030;52.274;8.040;2023-05-09T07:12:25;19.40;99.90
71367;DHT22;60030;52.274;8.040;2023-05-09T07:14:53;19.50;99.90
71367;DHT22;60030;52.274;8.040;2023-05-09T07:17:20;19.60;99.90
71367;DHT22;60030;52.274;8.040;2023-05-09T07:19:49;19.70;99.90
71367;DHT22;60030;52.274;8.040;2023-05-09T07:22:17;19.70;99.90
71367;DHT22;60030;52.274;8.040;2023-05-09T07:24:44;19.90;99.90
71367;DHT22;60030;52.274;8.040;2023-05-09T07:27:13;20.00;99.90
71367;DHT22;60030;52.274;8.040;2023-05-09T07:29:41;19.90;99.90
71367;DHT22;60030;52.274;8.040;2023-05-09T07:32:08;19.80;99.90
71367;DHT22;60030;52.274;8.040;2023-05-09T07:34:36;19.80;99.90
71367;DHT22;60030;52.274;8.040;2023-05-09T07:37:03;19.90;99.90
71367;DHT22;60030;52.274;8.040;2023-05-09T07:39:30;19.90;99.90
71367;DHT22;60030;52.274;8.040;2023-05-09T07:41:58;19.80;99.90
71367;DHT22;60030;52.274;8.040;2023-05-09T07:44:28;19.80;99.90
71367;DHT22;60030;52.274;8.040;2023-05-09T07:46:55;19.90;99.90
71367;DHT22;60030;52.274;8.040;2023-05-09T07:49:24;20.10;99.90
71367;DHT22;60030;52.274;8.040;2023-05-09T07:51:52;20.20;99.90
71367;DHT22;60030;52.274;8.040;2023-05-09T07:54:19;20.30;99.90
71367;DHT22;60030;52.274;8.040;2023-05-09T07:56:47;20.40;99.90
71367;DHT22;60030;52.274;8.040;2023-05-09T07:59:14;20.50;99.90
71367;DHT22;60030;52.274;8.040;2023-05-09T08:01:43;20.50;99.90
71367;DHT22;60030;52.274;8.040;2023-05-09T08:04:11;20.40;99.90
71367;DHT22;60030;52.274;8.040;2023-05-09T08:06:39;20.50;99.90
71367;DHT22;60030;52.274;8.040;2023-05-09T08:09:07;20.40;99.90
71367;DHT22;60030;52.274;8.040;2023-05-09T08:11:36;20.40;99.90
71367;DHT22;60030;52.274;8.040;2023-05-09T08:14:03;20.50;99.90
71367;DHT22;60030;52.274;8.040;2023-05-09T08:16:31;20.50;99.90
71367;DHT22;60030;52.274;8.040;2023-05-09T08:19:01;20.50;99.90
71367;DHT22;60030;52.274;8.040;2023-05-09T08:21:29;20.30;99.90
71367;DHT22;60030;52.274;8.040;2023-05-09T08:23:56;20.10;99.90
71367;DHT22;60030;52.274;8.040;2023-05-09T08:26:24;20.00;99.90
71367;DHT22;60030;52.274;8.040;2023-05-09T08:28:52;20.00;99.90
71367;DHT22;60030;52.274;8.040;2023-05-09T08:31:19;19.90;99.90
71367;DHT22;60030;52.274;8.040;2023-05-09T08:33:48;20.10;99.90
71367;DHT22;60030;52.274;8.040;2023-05-09T08:36:17;20.30;99.90
71367;DHT22;60030;52.274;8.040;2023-05-09T08:38:44;20.50;99.90
71367;DHT22;60030;52.274;8.040;2023-05-09T08:41:12;20.60;99.90
71367;DHT22;60030;52.274;8.040;2023-05-09T08:43:39;20.70;99.90
71367;DHT22;60030;52.274;8.040;2023-05-09T08:46:08;20.40;99.90
71367;DHT22;60030;52.274;8.040;2023-05-09T08:48:36;20.20;99.90
71367;DHT22;60030;52.274;8.040;2023-05-09T08:51:06;20.20;99.90
71367;DHT22;60030;52.274;8.040;2023-05-09T08:53:37;20.50;99.90
71367;DHT22;60030;52.274;8.040;2023-05-09T08:56:05;20.70;99.90
71367;DHT22;60030;52.274;8.040;2023-05-09T08:58:33;21.00;99.90
71367;DHT22;60030;52.274;8.040;2023-05-09T09:01:01;21.20;99.90
71367;DHT22;60030;52.274;8.040;2023-05-09T09:03:31;21.00;99.90
71367;DHT22;60030;52.274;8.040;2023-05-09T09:05:59;20.80;99.90
71367;DHT22;60030;52.274;8.040;2023-05-09T09:08:27;20.60;99.90
71367;DHT22;60030;52.274;8.040;2023-05-09T09:10:57;20.70;99.90
71367;DHT22;60030;52.274;8.040;2023-05-09T09:13:26;20.80;99.90
71367;DHT22;60030;52.274;8.040;2023-05-09T09:15:55;20.80;99.90
71367;DHT22;60030;52.274;8.040;2023-05-09T09:18:28;20.60;99.90
71367;DHT22;60030;52.274;8.040;2023-05-09T09:20:58;20.70;99.90
71367;DHT22;60030;52.274;8.040;2023-05-09T09:23:28;20.80;99.90
71367;DHT22;60030;52.274;8.040;2023-05-09T09:25:59;20.80;99.90
71367;DHT22;60030;52.274;8.040;2023-05-09T09:28:27;20.90;99.90
71367;DHT22;60030;52.274;8.040;2023-05-09T09:30:54;21.10;99.90
71367;DHT22;60030;52.274;8.040;2023-05-09T09:33:23;21.20;99.90
71367;DHT22;60030;52.274;8.040;2023-05-09T09:35:52;21.30;99.90
71367;DHT22;60030;52.274;8.040;2023-05-09T09:38:20;21.50;99.90
71367;DHT22;60030;52.274;8.040;2023-05-09T09:40:48;21.60;99.90
71367;DHT22;60030;52.274;8.040;2023-05-09T09:43:25;21.60;99.90
71367;DHT22;60030;52.274;8.040;2023-05-09T09:45:53;21.50;99.90
71367;DHT22;60030;52.274;8.040;2023-05-09T09:48:23;21.80;99.90
71367;DHT22;60030;52.274;8.040;2023-05-09T09:50:50;22.20;99.90
71367;DHT22;60030;52.274;8.040;2023-05-09T09:53:19;22.40;99.90
71367;DHT22;60030;52.274;8.040;2023-05-09T09:55:48;22.40;99.90
71367;DHT22;60030;52.274;8.040;2023-05-09T09:58:17;22.40;99.90
71367;DHT22;60030;52.274;8.040;2023-05-09T10:01:03;22.20;99.90
71367;DHT22;60030;52.274;8.040;2023-05-09T10:03:34;21.60;99.90
71367;DHT22;60030;52.274;8.040;2023-05-09T10:06:02;21.70;99.90
71367;DHT22;60030;52.274;8.040;2023-05-09T10:08:29;21.60;99.90
71367;DHT22;60030;52.274;8.040;2023-05-09T10:10:58;21.70;99.90
71367;DHT22;60030;52.274;8.040;2023-05-09T10:13:27;21.80;99.90
71367;DHT22;60030;52.274;8.040;2023-05-09T10:15:56;22.00;99.90
71367;DHT22;60030;52.274;8.040;2023-05-09T10:18:27;22.30;99.90
71367;DHT22;60030;52.274;8.040;2023-05-09T10:20:57;22.40;99.90
71367;DHT22;60030;52.274;8.040;2023-05-09T10:23:29;22.60;99.90
71367;DHT22;60030;52.274;8.040;2023-05-09T10:26:03;22.50;99.90
71367;DHT22;60030;52.274;8.040;2023-05-09T10:28:34;22.60;99.90
71367;DHT22;60030;52.274;8.040;2023-05-09T10:31:11;22.60;99.90
71367;DHT22;60030;52.274;8.040;2023-05-09T10:33:46;22.50;99.90
71367;DHT22;60030;52.274;8.040;2023-05-09T10:36:16;22.30;99.90
71367;DHT22;60030;52.274;8.040;2023-05-09T10:38:44;22.40;99.90
71367;DHT22;60030;52.274;8.040;2023-05-09T10:41:12;22.00;99.90
71367;DHT22;60030;52.274;8.040;2023-05-09T10:43:40;21.80;99.90
71367;DHT22;60030;52.274;8.040;2023-05-09T10:46:11;21.60;99.90
71367;DHT22;60030;52.274;8.040;2023-05-09T10:48:40;21.50;99.90
71367;DHT22;60030;52.274;8.040;2023-05-09T10:51:08;21.40;99.90
71367;DHT22;60030;52.274;8.040;2023-05-09T10:53:42;21.10;99.90
71367;DHT22;60030;52.274;8.040;2023-05-09T10:56:22;21.10;99.90
71367;DHT22;60030;52.274;8.040;2023-05-09T10:58:49;21.00;99.90
71367;DHT22;60030;52.274;8.040;2023-05-09T11:01:30;21.00;99.90
71367;DHT22;60030;52.274;8.040;2023-05-09T11:04:00;20.90;99.90
71367;DHT22;60030;52.274;8.040;2023-05-09T11:06:46;20.90;99.90
71367;DHT22;60030;52.274;8.040;2023-05-09T11:09:24;20.90;99.90
71367;DHT22;60030;52.274;8.040;2023-05-09T11:11:54;21.00;99.90
71367;DHT22;60030;52.274;8.040;2023-05-09T11:14:31;21.00;99.90
71367;DHT22;60030;52.274;8.040;2023-05-09T11:17:03;21.20;99.90
71367;DHT22;60030;52.274;8.040;2023-05-09T11:19:36;21.60;99.90
71367;DHT22;60030;52.274;8.040;2023-05-09T11:22:14;22.10;99.90
71367;DHT22;60030;52.274;8.040;2023-05-09T11:24:45;22.50;99.90
71367;DHT22;60030;52.274;8.040;2023-05-09T11:27:14;22.70;99.90
71367;DHT22;60030;52.274;8.040;2023-05-09T11:29:49;22.60;99.90
71367;DHT22;60030;52.274;8.040;2023-05-09T11:32:19;22.50;99.90
71367;DHT22;60030;52.274;8.040;2023-05-09T11:34:47;22.20;99.90
71367;DHT22;60030;52.274;8.040;2023-05-09T11:37:16;21.70;99.90
71367;DHT22;60030;52.274;8.040;2023-05-09T11:39:57;21.40;99.90
71367;DHT22;60030;52.274;8.040;2023-05-09T11:42:27;21.30;99.90
71367;DHT22;60030;52.274;8.040;2023-05-09T11:44:56;21.20;99.90
71367;DHT22;60030;52.274;8.040;2023-05-09T11:47:26;21.00;99.90
71367;DHT22;60030;52.274;8.040;2023-05-09T11:49:55;20.90;99.90
71367;DHT22;60030;52.274;8.040;2023-05-09T11:52:23;20.80;99.90
71367;DHT22;60030;52.274;8.040;2023-05-09T11:54:51;20.70;99.90
71367;DHT22;60030;52.274;8.040;2023-05-09T11:57:19;20.50;99.90
71367;DHT22;60030;52.274;8.040;2023-05-09T11:59:47;20.40;99.90
71367;DHT22;60030;52.274;8.040;2023-05-09T12:02:14;20.50;99.90
71367;DHT22;60030;52.274;8.040;2023-05-09T12:04:43;20.50;99.90
71367;DHT22;60030;52.274;8.040;2023-05-09T12:07:11;20.40;99.90
71367;DHT22;60030;52.274;8.040;2023-05-09T12:09:39;20.30;99.90
71367;DHT22;60030;52.274;8.040;2023-05-09T12:12:09;20.30;99.90
71367;DHT22;60030;52.274;8.040;2023-05-09T12:14:40;20.30;99.90
71367;DHT22;60030;52.274;8.040;2023-05-09T12:17:09;20.60;99.90
71367;DHT22;60030;52.274;8.040;2023-05-09T12:19:36;20.80;99.90
71367;DHT22;60030;52.274;8.040;2023-05-09T12:22:05;21.10;99.90
71367;DHT22;60030;52.274;8.040;2023-05-09T12:24:34;21.10;99.90
71367;DHT22;60030;52.274;8.040;2023-05-09T12:27:03;21.00;99.90
71367;DHT22;60030;52.274;8.040;2023-05-09T12:29:32;20.90;99.90
71367;DHT22;60030;52.274;8.040;2023-05-09T12:32:00;20.90;99.90
71367;DHT22;60030;52.274;8.040;2023-05-09T12:34:28;21.10;99.90
71367;DHT22;60030;52.274;8.040;2023-05-09T12:36:55;21.30;99.90
71367;DHT22;60030;52.274;8.040;2023-05-09T12:39:26;21.40;99.90
71367;DHT22;60030;52.274;8.040;2023-05-09T12:41:53;21.40;99.90
71367;DHT22;60030;52.274;8.040;2023-05-09T12:44:25;22.00;99.90
71367;DHT22;60030;52.274;8.040;2023-05-09T12:46:55;22.50;99.90
71367;DHT22;60030;52.274;8.040;2023-05-09T12:49:23;23.10;99.90
71367;DHT22;60030;52.274;8.040;2023-05-09T12:51:51;24.10;99.90
71367;DHT22;60030;52.274;8.040;2023-05-09T12:54:20;24.00;99.90
71367;DHT22;60030;52.274;8.040;2023-05-09T12:56:50;23.40;99.90
71367;DHT22;60030;52.274;8.040;2023-05-09T12:59:22;22.90;99.90
71367;DHT22;60030;52.274;8.040;2023-05-09T13:01:54;22.80;99.90
71367;DHT22;60030;52.274;8.040;2023-05-09T13:04:23;22.70;99.90
71367;DHT22;60030;52.274;8.040;2023-05-09T13:06:52;22.60;99.90
71367;DHT22;60030;52.274;8.040;2023-05-09T13:09:20;22.20;99.90
71367;DHT22;60030;52.274;8.040;2023-05-09T13:11:50;21.80;99.90
71367;DHT22;60030;52.274;8.040;2023-05-09T13:14:18;21.70;99.90
71367;DHT22;60030;52.274;8.040;2023-05-09T13:16:46;21.70;99.90
71367;DHT22;60030;52.274;8.040;2023-05-09T13:19:13;21.70;99.90
71367;DHT22;60030;52.274;8.040;2023-05-09T13:21:41;21.70;99.90
71367;DHT22;60030;52.274;8.040;2023-05-09T13:24:08;21.70;99.90
71367;DHT22;60030;52.274;8.040;2023-05-09T13:26:36;21.40;99.90
71367;DHT22;60030;52.274;8.040;2023-05-09T13:29:05;21.40;99.90
71367;DHT22;60030;52.274;8.040;2023-05-09T13:31:33;21.10;99.90
71367;DHT22;60030;52.274;8.040;2023-05-09T13:34:03;21.10;99.90
71367;DHT22;60030;52.274;8.040;2023-05-09T13:36:32;21.00;99.90
71367;DHT22;60030;52.274;8.040;2023-05-09T13:38:59;21.00;99.90
71367;DHT22;60030;52.274;8.040;2023-05-09T13:41:27;21.00;99.90
71367;DHT22;60030;52.274;8.040;2023-05-09T13:43:59;21.20;99.90
71367;DHT22;60030;52.274;8.040;2023-05-09T13:46:31;21.20;99.90
71367;DHT22;60030;52.274;8.040;2023-05-09T13:48:58;21.40;99.90
71367;DHT22;60030;52.274;8.040;2023-05-09T13:51:26;21.60;99.90
71367;DHT22;60030;52.274;8.040;2023-05-09T13:53:55;21.60;99.90
71367;DHT22;60030;52.274;8.040;2023-05-09T13:56:23;21.70;99.90
71367;DHT22;60030;52.274;8.040;2023-05-09T13:58:52;21.50;99.90
71367;DHT22;60030;52.274;8.040;2023-05-09T14:01:19;21.50;99.90
71367;DHT22;60030;52.274;8.040;2023-05-09T14:03:49;21.40;99.90
71367;DHT22;60030;52.274;8.040;2023-05-09T14:06:17;21.30;99.90
71367;DHT22;60030;52.274;8.040;2023-05-09T14:08:44;21.40;99.90
71367;DHT22;60030;52.274;8.040;2023-05-09T14:11:12;21.30;99.90
71367;DHT22;60030;52.274;8.040;2023-05-09T14:13:39;21.40;99.90
71367;DHT22;60030;52.274;8.040;2023-05-09T14:16:07;21.30;99.90
71367;DHT22;60030;52.274;8.040;2023-05-09T14:18:34;21.10;99.90
71367;DHT22;60030;52.274;8.040;2023-05-09T14:21:03;21.00;99.90
71367;DHT22;60030;52.274;8.040;2023-05-09T14:23:36;20.90;99.90
71367;DHT22;60030;52.274;8.040;2023-05-09T14:26:03;21.10;99.90
71367;DHT22;60030;52.274;8.040;2023-05-09T14:28:31;21.20;99.90
71367;DHT22;60030;52.274;8.040;2023-05-09T14:30:59;20.90;99.90
71367;DHT22;60030;52.274;8.040;2023-05-09T14:33:28;20.70;99.90
71367;DHT22;60030;52.274;8.040;2023-05-09T14:35:56;20.70;99.90
71367;DHT22;60030;52.274;8.040;2023-05-09T14:38:27;20.50;99.90
71367;DHT22;60030;52.274;8.040;2023-05-09T14:40:57;20.50;99.90
71367;DHT22;60030;52.274;8.040;2023-05-09T14:43:27;20.50;99.90
71367;DHT22;60030;52.274;8.040;2023-05-09T14:45:54;20.50;99.90
71367;DHT22;60030;52.274;8.040;2023-05-09T14:48:22;20.50;99.90
71367;DHT22;60030;52.274;8.040;2023-05-09T14:50:49;20.60;99.90
71367;DHT22;60030;52.274;8.040;2023-05-09T14:53:21;20.60;99.90
71367;DHT22;60030;52.274;8.040;2023-05-09T14:55:51;20.70;99.90
71367;DHT22;60030;52.274;8.040;2023-05-09T14:58:19;20.70;99.90
71367;DHT22;60030;52.274;8.040;2023-05-09T15:00:47;20.60;99.90
71367;DHT22;60030;52.274;8.040;2023-05-09T15:03:15;20.60;99.90
71367;DHT22;60030;52.274;8.040;2023-05-09T15:05:43;20.70;99.90
71367;DHT22;60030;52.274;8.040;2023-05-09T15:08:10;20.70;99.90
71367;DHT22;60030;52.274;8.040;2023-05-09T15:10:39;20.60;99.90
71367;DHT22;60030;52.274;8.040;2023-05-09T15:13:09;20.80;99.90
71367;DHT22;60030;52.274;8.040;2023-05-09T15:15:36;21.20;99.90
71367;DHT22;60030;52.274;8.040;2023-05-09T15:18:07;21.10;99.90
71367;DHT22;60030;52.274;8.040;2023-05-09T15:20:38;21.00;99.90
71367;DHT22;60030;52.274;8.040;2023-05-09T15:23:06;21.00;99.90
71367;DHT22;60030;52.274;8.040;2023-05-09T15:25:33;20.90;99.90
71367;DHT22;60030;52.274;8.040;2023-05-09T15:28:02;20.70;99.90
71367;DHT22;60030;52.274;8.040;2023-05-09T15:30:31;20.50;99.90
71367;DHT22;60030;52.274;8.040;2023-05-09T15:33:00;20.50;99.90
71367;DHT22;60030;52.274;8.040;2023-05-09T15:35:28;20.50;99.90
71367;DHT22;60030;52.274;8.040;2023-05-09T15:37:55;20.50;99.90
71367;DHT22;60030;52.274;8.040;2023-05-09T15:40:22;20.30;99.90
71367;DHT22;60030;52.274;8.040;2023-05-09T15:42:51;20.20;99.90